createdAt,value
2022-10-17T00:01:00.554Z,99371.91
2022-10-17T00:03:27.500Z,99369.75
2022-10-17T00:05:54.664Z,99361.84
2022-10-17T00:08:21.917Z,99366.03
2022-10-17T00:10:57.778Z,99371.81
2022-10-17T00:13:26.600Z,99374.19
2022-10-17T00:15:54.007Z,99378.16
2022-10-17T00:18:21.375Z,99378.63
2022-10-17T00:20:48.645Z,99377.03
2022-10-17T00:23:15.868Z,99377.97
2022-10-17T00:25:42.906Z,99372.81
2022-10-17T00:28:12.641Z,99378.41
2022-10-17T00:30:39.945Z,99376.66
2022-10-17T00:33:07.498Z,99378.59
2022-10-17T00:35:34.609Z,99378.59
2022-10-17T00:38:01.840Z,99374.47
2022-10-17T00:40:28.805Z,99382.56
2022-10-17T00:42:56.190Z,99379.28
2022-10-17T00:45:26.620Z,99386.03
2022-10-17T00:48:00.368Z,99383.06
2022-10-17T00:50:28.545Z,99388.16
2022-10-17T00:53:01.893Z,99386.78
2022-10-17T00:55:32.940Z,99395.34
2022-10-17T00:58:04.254Z,99386.88
2022-10-17T01:00:31.766Z,99391.00
2022-10-17T01:02:58.719Z,99389.00
2022-10-17T01:05:26.275Z,99393.22
2022-10-17T01:07:54.218Z,99390.34
2022-10-17T01:13:21.342Z,99399.09
2022-10-17T01:16:22.176Z,99399.19
2022-10-17T01:22:09.819Z,99395.72
2022-10-17T01:25:03.236Z,99396.50
2022-10-17T01:27:56.854Z,99403.91
2022-10-17T01:30:43.107Z,99396.28
2022-10-17T01:33:30.081Z,99408.97
2022-10-17T01:36:20.222Z,99408.81
2022-10-17T01:39:01.046Z,99407.66
2022-10-17T01:41:35.892Z,99396.69
2022-10-17T01:44:17.404Z,99403.03
2022-10-17T01:46:50.826Z,99394.19
2022-10-17T01:49:23.956Z,99395.16
2022-10-17T01:52:00.706Z,99395.25
2022-10-17T01:54:34.025Z,99401.66
2022-10-17T01:57:06.492Z,99402.81
2022-10-17T01:59:41.263Z,99401.97
2022-10-17T02:02:10.121Z,99406.69
2022-10-17T02:04:37.793Z,99401.41
2022-10-17T02:07:12.840Z,99414.75
2022-10-17T02:09:40.732Z,99409.38
2022-10-17T02:12:26.389Z,99412.06
2022-10-17T02:15:40.493Z,99410.34
2022-10-17T02:18:30.925Z,99421.19
2022-10-17T02:21:05.015Z,99418.06
2022-10-17T02:23:58.033Z,99434.22
2022-10-17T02:26:43.841Z,99437.75
2022-10-17T02:29:24.817Z,99435.06
2022-10-17T02:32:07.344Z,99443.03
2022-10-17T02:34:41.972Z,99438.69
2022-10-17T02:37:13.138Z,99444.50
2022-10-17T02:39:41.468Z,99442.97
2022-10-17T02:42:12.038Z,99450.91
2022-10-17T02:44:43.004Z,99454.59
2022-10-17T02:47:22.703Z,99458.13
2022-10-17T02:49:55.345Z,99461.00
2022-10-17T02:52:42.893Z,99463.81
2022-10-17T02:55:23.503Z,99466.59
2022-10-17T02:57:53.227Z,99469.38
2022-10-17T03:00:22.403Z,99467.63
2022-10-17T03:02:52.528Z,99468.81
2022-10-17T03:05:22.787Z,99468.88
2022-10-17T03:07:50.088Z,99464.75
2022-10-17T03:10:18.965Z,99468.41
2022-10-17T03:12:45.883Z,99468.50
2022-10-17T03:15:13.658Z,99464.09
2022-10-17T03:17:41.672Z,99480.41
2022-10-17T03:20:09.830Z,99475.19
2022-10-17T03:22:36.866Z,99479.53
2022-10-17T03:25:05.852Z,99487.88
2022-10-17T03:27:35.261Z,99481.88
2022-10-17T03:30:02.511Z,99488.34
2022-10-17T03:32:34.013Z,99489.19
2022-10-17T03:35:01.398Z,99497.25
2022-10-17T03:37:28.813Z,99504.47
2022-10-17T03:39:56.621Z,99501.88
2022-10-17T03:42:23.693Z,99503.63
2022-10-17T03:44:50.851Z,99512.63
2022-10-17T03:47:17.982Z,99507.34
2022-10-17T03:49:46.258Z,99506.47
2022-10-17T03:52:14.242Z,99507.41
2022-10-17T03:54:42.169Z,99505.78
2022-10-17T03:57:09.187Z,99505.03
2022-10-17T03:59:36.591Z,99499.63
2022-10-17T04:02:08.736Z,99506.06
2022-10-17T04:04:36.041Z,99502.69
2022-10-17T04:07:03.580Z,99509.13
2022-10-17T04:09:31.247Z,99507.47
2022-10-17T04:12:04.233Z,99516.66
2022-10-17T04:14:33.063Z,99520.41
2022-10-17T04:17:01.315Z,99509.84
2022-10-17T04:19:29.227Z,99519.03
2022-10-17T04:21:56.861Z,99521.97
2022-10-17T04:24:25.802Z,99520.59
2022-10-17T04:27:13.248Z,99530.75
2022-10-17T04:29:44.457Z,99522.06
2022-10-17T04:32:17.555Z,99521.47
2022-10-17T04:34:50.249Z,99522.78
2022-10-17T04:37:19.378Z,99522.16
2022-10-17T04:39:47.794Z,99531.34
2022-10-17T04:42:14.762Z,99527.28
2022-10-17T04:44:42.520Z,99529.28
2022-10-17T04:47:09.624Z,99533.09
2022-10-17T04:49:38.729Z,99533.31
2022-10-17T04:52:10.655Z,99540.69
2022-10-17T04:54:43.662Z,99543.38
2022-10-17T04:57:13.138Z,99545.97
2022-10-17T04:59:41.541Z,99546.13
2022-10-17T05:02:31.608Z,99549.94
2022-10-17T05:04:59.512Z,99556.22
2022-10-17T05:07:26.611Z,99548.81
2022-10-17T05:10:00.429Z,99560.97
2022-10-17T05:12:28.650Z,99554.38
2022-10-17T05:14:55.860Z,99554.13
2022-10-17T05:17:25.531Z,99562.72
2022-10-17T05:19:52.539Z,99558.81
2022-10-17T05:22:19.745Z,99567.59
2022-10-17T05:24:47.129Z,99576.25
2022-10-17T05:27:14.110Z,99575.56
2022-10-17T05:29:41.113Z,99566.28
2022-10-17T05:32:18.587Z,99579.56
2022-10-17T05:34:45.628Z,99579.56
2022-10-17T05:37:13.327Z,99579.56
2022-10-17T05:39:50.566Z,99576.66
2022-10-17T05:42:20.050Z,99586.31
2022-10-17T05:44:47.924Z,99583.09
2022-10-17T05:47:18.332Z,99581.78
2022-10-17T05:49:51.250Z,99584.72
2022-10-17T05:52:26.561Z,99588.78
2022-10-17T05:55:04.055Z,99599.00
2022-10-17T05:57:33.918Z,99594.03
2022-10-17T06:00:01.651Z,99597.16
2022-10-17T06:02:41.493Z,99595.84
2022-10-17T06:05:10.295Z,99602.50
2022-10-17T06:07:37.455Z,99607.22
2022-10-17T06:10:07.182Z,99604.94
2022-10-17T06:12:34.337Z,99610.63
2022-10-17T06:15:01.779Z,99619.72
2022-10-17T06:17:30.601Z,99620.88
2022-10-17T06:19:58.340Z,99624.25
2022-10-17T06:22:25.294Z,99625.91
2022-10-17T06:24:54.037Z,99626.78
2022-10-17T06:27:21.139Z,99624.84
2022-10-17T06:29:48.921Z,99626.00
2022-10-17T06:32:17.186Z,99627.44
2022-10-17T06:34:46.963Z,99627.91
2022-10-17T06:37:15.106Z,99630.59
2022-10-17T06:39:43.568Z,99632.69
2022-10-17T06:42:13.305Z,99635.09
2022-10-17T06:44:59.579Z,99633.59
2022-10-17T06:47:39.843Z,99631.47
2022-10-17T06:50:22.003Z,99634.84
2022-10-17T06:52:59.363Z,99635.91
2022-10-17T06:55:46.092Z,99641.41
2022-10-17T06:58:23.466Z,99632.84
2022-10-17T07:01:13.945Z,99644.56
2022-10-17T07:03:41.756Z,99641.78
2022-10-17T07:06:11.345Z,99637.91
2022-10-17T07:08:47.509Z,99652.00
2022-10-17T07:11:18.599Z,99647.03
2022-10-17T07:13:45.350Z,99657.00
2022-10-17T07:16:15.004Z,99653.38
2022-10-17T07:18:43.318Z,99648.44
2022-10-17T07:21:10.680Z,99660.56
2022-10-17T07:23:40.908Z,99649.59
2022-10-17T07:26:12.002Z,99647.00
2022-10-17T07:28:42.204Z,99653.50
2022-10-17T07:31:38.841Z,99650.28
2022-10-17T07:34:06.517Z,99647.22
2022-10-17T07:36:33.577Z,99656.88
2022-10-17T07:39:03.342Z,99658.81
2022-10-17T07:41:31.550Z,99660.63
2022-10-17T07:43:59.001Z,99664.50
2022-10-17T07:46:32.444Z,99663.72
2022-10-17T07:48:59.982Z,99658.94
2022-10-17T07:51:27.993Z,99654.28
2022-10-17T07:53:55.920Z,99656.81
2022-10-17T07:56:24.819Z,99659.34
2022-10-17T07:58:53.306Z,99656.69
2022-10-17T08:01:20.368Z,99655.41
2022-10-17T08:03:50.967Z,99644.94
2022-10-17T08:06:18.509Z,99648.41
2022-10-17T08:08:45.562Z,99645.41
2022-10-17T08:11:14.950Z,99643.16
2022-10-17T08:13:42.558Z,99650.59
2022-10-17T08:16:11.955Z,99643.53
2022-10-17T08:18:41.318Z,99642.41
2022-10-17T08:21:08.739Z,99636.78
2022-10-17T08:23:36.489Z,99636.53
2022-10-17T08:26:05.924Z,99633.03
2022-10-17T08:28:35.662Z,99636.13
2022-10-17T08:31:08.122Z,99629.00
2022-10-17T08:33:35.110Z,99633.13
2022-10-17T08:36:03.482Z,99622.63
2022-10-17T08:38:35.069Z,99623.75
2022-10-17T08:41:13.781Z,99623.75
2022-10-17T08:43:56.951Z,99620.31
2022-10-17T08:46:31.515Z,99621.13
2022-10-17T08:49:01.257Z,99613.22
2022-10-17T08:51:33.311Z,99610.66
2022-10-17T08:54:13.638Z,99615.56
2022-10-17T08:56:49.196Z,99610.66
2022-10-17T08:59:31.788Z,99612.38
2022-10-17T09:02:01.794Z,99610.50
2022-10-17T09:04:38.302Z,99612.31
2022-10-17T09:07:18.100Z,99603.88
2022-10-17T09:09:56.810Z,99601.00
2022-10-17T09:13:08.323Z,99593.13
2022-10-17T09:15:55.726Z,99585.81
2022-10-17T09:18:38.965Z,99574.94
2022-10-17T09:21:25.566Z,99584.59
2022-10-17T09:24:09.110Z,99572.38
2022-10-17T09:26:41.289Z,99576.66
2022-10-17T09:29:23.653Z,99570.63
2022-10-17T09:32:01.136Z,99572.66
2022-10-17T09:34:31.497Z,99577.88
2022-10-17T09:37:02.057Z,99571.97
2022-10-17T09:39:33.174Z,99570.41
2022-10-17T09:42:01.803Z,99575.47
2022-10-17T09:44:57.149Z,99568.22
2022-10-17T09:47:34.895Z,99568.66
2022-10-17T09:50:02.793Z,99564.38
2022-10-17T09:52:36.585Z,99562.69
2022-10-17T09:55:39.289Z,99567.59
2022-10-17T09:58:08.651Z,99567.72
2022-10-17T10:00:39.090Z,99553.66
2022-10-17T10:03:21.868Z,99553.25
2022-10-17T10:06:14.955Z,99553.53
2022-10-17T10:08:56.391Z,99552.09
2022-10-17T10:11:45.399Z,99544.78
2022-10-17T10:14:20.104Z,99550.66
2022-10-17T10:16:49.848Z,99552.34
2022-10-17T10:19:33.426Z,99548.03
2022-10-17T10:22:03.703Z,99539.41
2022-10-17T10:24:31.552Z,99540.84
2022-10-17T10:27:05.073Z,99545.09
2022-10-17T10:29:41.315Z,99536.56
2022-10-17T10:32:10.515Z,99536.16
2022-10-17T10:34:49.844Z,99537.69
2022-10-17T10:37:21.880Z,99528.97
2022-10-17T10:40:37.438Z,99526.94
2022-10-17T10:43:06.558Z,99523.06
2022-10-17T10:45:47.859Z,99519.13
2022-10-17T10:48:33.990Z,99513.28
2022-10-17T10:51:12.490Z,99513.94
2022-10-17T10:53:55.991Z,99509.50
2022-10-17T10:56:37.705Z,99505.44
2022-10-17T10:59:20.848Z,99501.19
2022-10-17T11:02:05.210Z,99497.94
2022-10-17T11:04:50.709Z,99493.22
2022-10-17T11:07:25.965Z,99488.59
2022-10-17T11:10:00.712Z,99479.22
2022-10-17T11:12:39.873Z,99492.13
2022-10-17T11:15:25.922Z,99481.94
2022-10-17T11:18:02.399Z,99477.84
2022-10-17T11:20:38.758Z,99485.44
2022-10-17T11:23:24.914Z,99472.97
2022-10-17T11:25:53.977Z,99473.78
2022-10-17T11:28:23.778Z,99470.34
2022-10-17T11:31:03.290Z,99471.56
2022-10-17T11:33:48.844Z,99466.53
2022-10-17T11:36:19.798Z,99468.03
2022-10-17T11:38:51.046Z,99460.59
2022-10-17T11:41:29.504Z,99451.06
2022-10-17T11:44:26.346Z,99446.13
2022-10-17T11:47:02.853Z,99444.56
2022-10-17T11:49:42.196Z,99441.13
2022-10-17T11:52:44.299Z,99441.31
2022-10-17T11:55:21.958Z,99433.47
2022-10-17T11:58:13.790Z,99433.56
2022-10-17T12:00:51.830Z,99436.44
2022-10-17T12:03:45.814Z,99430.38
2022-10-17T12:06:37.658Z,99431.00
2022-10-17T12:09:20.043Z,99435.59
2022-10-17T12:11:59.666Z,99432.97
2022-10-17T12:14:47.316Z,99432.69
2022-10-17T12:17:40.725Z,99432.41
2022-10-17T12:20:28.689Z,99430.03
2022-10-17T12:23:05.119Z,99439.94
2022-10-17T12:28:18.497Z,99435.38
2022-10-17T12:31:01.002Z,99431.00
2022-10-17T12:33:38.196Z,99431.47
2022-10-17T12:36:17.278Z,99439.63
2022-10-17T12:38:49.831Z,99434.88
2022-10-17T12:41:37.587Z,99420.44
2022-10-17T12:44:14.419Z,99428.34
2022-10-17T12:47:08.001Z,99414.50
2022-10-17T12:49:45.767Z,99427.72
2022-10-17T12:52:35.251Z,99420.25
2022-10-17T12:55:12.986Z,99425.78
2022-10-17T12:57:52.835Z,99414.25
2022-10-17T13:00:32.863Z,99410.84
2022-10-17T13:03:12.681Z,99415.94
2022-10-17T13:05:45.588Z,99420.19
2022-10-17T13:08:26.180Z,99416.06
2022-10-17T13:10:54.082Z,99410.31
2022-10-17T13:13:20.808Z,99414.31
2022-10-17T13:15:53.475Z,99418.72
2022-10-17T13:18:23.406Z,99416.13
2022-10-17T13:21:03.312Z,99414.50
2022-10-17T13:23:37.962Z,99421.00
2022-10-17T13:26:20.490Z,99420.72
2022-10-17T13:29:11.913Z,99418.50
2022-10-17T13:31:40.833Z,99412.53
2022-10-17T13:34:17.309Z,99420.16
2022-10-17T13:36:48.739Z,99419.38
2022-10-17T13:39:32.653Z,99414.41
2022-10-17T13:42:07.690Z,99410.88
2022-10-17T13:44:37.730Z,99413.66
2022-10-17T13:47:05.604Z,99408.91
2022-10-17T13:49:41.791Z,99416.69
2022-10-17T13:52:16.648Z,99419.31
2022-10-17T13:54:47.020Z,99417.47
2022-10-17T13:57:29.614Z,99410.72
2022-10-17T14:00:11.382Z,99406.72
2022-10-17T14:02:42.956Z,99415.38
2022-10-17T14:05:20.482Z,99409.88
2022-10-17T14:08:13.010Z,99411.28
2022-10-17T14:10:44.367Z,99408.03
2022-10-17T14:13:23.893Z,99402.59
2022-10-17T14:15:53.429Z,99400.69
2022-10-17T14:18:24.504Z,99398.91
2022-10-17T14:23:42.902Z,99401.75
2022-10-17T14:26:21.378Z,99401.16
2022-10-17T14:29:06.578Z,99407.88
2022-10-17T14:31:36.821Z,99396.84
2022-10-17T14:34:05.500Z,99393.84
2022-10-17T14:36:37.095Z,99401.53
2022-10-17T14:39:11.889Z,99404.78
2022-10-17T14:41:44.797Z,99410.34
2022-10-17T14:44:22.558Z,99410.44
2022-10-17T14:46:57.896Z,99408.97
2022-10-17T14:49:39.656Z,99412.22
2022-10-17T14:52:27.305Z,99415.50
2022-10-17T14:54:55.193Z,99409.94
2022-10-17T14:57:26.924Z,99411.13
2022-10-17T14:59:56.213Z,99417.66
2022-10-17T15:02:25.171Z,99411.69
2022-10-17T15:04:52.569Z,99409.88
2022-10-17T15:07:21.237Z,99416.13
2022-10-17T15:09:50.000Z,99412.78
2022-10-17T15:12:22.542Z,99410.94
2022-10-17T15:14:50.799Z,99416.69
2022-10-17T15:17:30.018Z,99415.50
2022-10-17T15:19:57.700Z,99412.56
2022-10-17T15:22:25.840Z,99407.88
2022-10-17T15:24:52.744Z,99414.88
2022-10-17T15:27:26.618Z,99420.38
2022-10-17T15:29:53.886Z,99419.91
2022-10-17T15:32:20.829Z,99412.41
2022-10-17T15:34:48.570Z,99420.00
2022-10-17T15:37:25.647Z,99423.72
2022-10-17T15:39:56.725Z,99426.28
2022-10-17T15:42:28.840Z,99428.91
2022-10-17T15:44:57.029Z,99431.06
2022-10-17T15:47:28.473Z,99430.88
2022-10-17T15:49:55.964Z,99432.13
2022-10-17T15:52:23.966Z,99438.25
2022-10-17T15:54:51.529Z,99433.56
2022-10-17T15:57:21.773Z,99428.00
2022-10-17T15:59:51.171Z,99424.63
2022-10-17T16:02:20.380Z,99446.31
2022-10-17T16:04:49.641Z,99457.34
2022-10-17T16:07:17.713Z,99450.84
2022-10-17T16:09:45.476Z,99448.22
2022-10-17T16:12:17.613Z,99456.00
2022-10-17T16:14:45.265Z,99461.06
2022-10-17T16:17:16.423Z,99468.50
2022-10-17T16:19:43.821Z,99480.53
2022-10-17T16:22:30.374Z,99467.06
2022-10-17T16:24:58.613Z,99478.22
2022-10-17T16:27:26.632Z,99486.47
2022-10-17T16:29:54.007Z,99487.28
2022-10-17T16:32:20.855Z,99488.34
2022-10-17T16:34:48.788Z,99493.94
2022-10-17T16:37:15.919Z,99499.28
2022-10-17T16:39:43.219Z,99496.75
2022-10-17T16:42:10.083Z,99501.47
2022-10-17T16:44:37.554Z,99513.34
2022-10-17T16:47:04.588Z,99509.81
2022-10-17T16:49:31.571Z,99517.97
2022-10-17T16:51:58.500Z,99514.81
2022-10-17T16:54:25.469Z,99517.94
2022-10-17T16:56:52.352Z,99518.34
2022-10-17T16:59:19.747Z,99520.59
2022-10-17T17:01:46.603Z,99519.28
2022-10-17T17:04:13.719Z,99533.53
2022-10-17T17:06:40.720Z,99533.88
2022-10-17T17:09:09.388Z,99534.25
2022-10-17T17:11:37.567Z,99536.63
2022-10-17T17:14:06.677Z,99535.38
2022-10-17T17:16:34.901Z,99531.13
2022-10-17T17:19:07.649Z,99531.47
2022-10-17T17:21:35.479Z,99539.00
2022-10-17T17:24:04.512Z,99540.22
2022-10-17T17:27:26.280Z,99546.56
2022-10-17T17:29:53.341Z,99546.56
2022-10-17T17:32:20.290Z,99543.88
2022-10-17T17:34:47.369Z,99551.66
2022-10-17T17:37:14.283Z,99549.97
2022-10-17T17:39:41.287Z,99553.31
2022-10-17T17:42:08.269Z,99555.19
2022-10-17T17:44:35.187Z,99556.88
2022-10-17T17:47:02.330Z,99560.13
2022-10-17T17:49:29.283Z,99557.88
2022-10-17T17:51:56.300Z,99554.44
2022-10-17T17:54:23.352Z,99553.81
2022-10-17T17:56:50.293Z,99559.25
2022-10-17T17:59:17.307Z,99562.06
2022-10-17T18:01:44.406Z,99562.47
2022-10-17T18:04:12.000Z,99561.56
2022-10-17T18:06:39.756Z,99561.34
2022-10-17T18:09:07.811Z,99560.84
2022-10-17T18:11:36.127Z,99561.28
2022-10-17T18:14:06.798Z,99554.63
2022-10-17T18:16:36.053Z,99564.97
2022-10-17T18:19:06.851Z,99558.81
2022-10-17T18:21:34.504Z,99553.75
2022-10-17T18:24:01.603Z,99557.19
2022-10-17T18:26:28.866Z,99556.53
2022-10-17T18:28:56.134Z,99555.00
2022-10-17T18:31:28.368Z,99553.97
2022-10-17T18:33:58.157Z,99562.94
2022-10-17T18:36:26.724Z,99557.81
2022-10-17T18:38:55.070Z,99555.91
2022-10-17T18:41:27.527Z,99559.94
2022-10-17T18:43:55.795Z,99566.66
2022-10-17T18:46:28.967Z,99562.09
2022-10-17T18:48:58.495Z,99564.78
2022-10-17T18:51:26.407Z,99576.63
2022-10-17T18:53:56.588Z,99579.00
2022-10-17T18:56:23.942Z,99565.63
2022-10-17T18:58:52.143Z,99566.22
2022-10-17T19:01:26.078Z,99574.75
2022-10-17T19:03:55.467Z,99573.72
2022-10-17T19:06:25.641Z,99575.53
2022-10-17T19:08:53.649Z,99574.88
2022-10-17T19:11:23.145Z,99581.94
2022-10-17T19:13:51.299Z,99574.78
2022-10-17T19:16:27.480Z,99580.09
2022-10-17T19:19:00.626Z,99583.09
2022-10-17T19:21:28.232Z,99581.50
2022-10-17T19:24:01.739Z,99582.34
2022-10-17T19:26:31.138Z,99578.69
2022-10-17T19:29:00.459Z,99593.16
2022-10-17T19:31:30.023Z,99587.88
2022-10-17T19:33:57.345Z,99590.91
2022-10-17T19:36:30.765Z,99596.31
2022-10-17T19:43:24.829Z,99609.41
2022-10-17T19:46:02.074Z,99603.16
2022-10-17T19:48:31.669Z,99601.16
2022-10-17T19:50:58.919Z,99601.81
2022-10-17T19:53:30.117Z,99595.75
2022-10-17T19:55:58.327Z,99611.13
2022-10-17T19:58:26.423Z,99605.91
2022-10-17T20:00:57.748Z,99610.25
2022-10-17T20:03:25.561Z,99610.16
2022-10-17T20:05:52.645Z,99608.53
2022-10-17T20:08:20.350Z,99612.88
2022-10-17T20:10:47.690Z,99605.06
2022-10-17T20:13:15.253Z,99608.75
2022-10-17T20:15:43.010Z,99618.03
2022-10-17T20:18:10.580Z,99618.25
2022-10-17T20:20:38.132Z,99613.06
2022-10-17T20:23:05.715Z,99619.41
2022-10-17T20:25:34.592Z,99618.66
2022-10-17T20:28:01.906Z,99617.91
2022-10-17T20:30:29.210Z,99618.22
2022-10-17T20:32:57.011Z,99615.66
2022-10-17T20:35:23.987Z,99622.19
2022-10-17T20:37:52.056Z,99626.66
2022-10-17T20:40:35.727Z,99632.06
2022-10-17T20:43:05.323Z,99617.66
2022-10-17T20:45:50.503Z,99627.59
2022-10-17T20:48:19.976Z,99633.00
2022-10-17T20:50:47.172Z,99645.44
2022-10-17T20:53:35.955Z,99638.97
2022-10-17T20:56:12.966Z,99636.25
2022-10-17T20:58:40.117Z,99630.31
2022-10-17T21:01:10.953Z,99637.25
2022-10-17T21:03:42.403Z,99642.75
2022-10-17T21:06:13.883Z,99639.25
2022-10-17T21:08:43.586Z,99641.31
2022-10-17T21:11:19.811Z,99646.03
2022-10-17T21:13:48.966Z,99640.00
2022-10-17T21:16:18.944Z,99633.38
2022-10-17T21:18:46.488Z,99643.50
2022-10-17T21:21:19.978Z,99641.88
2022-10-17T21:23:49.087Z,99638.50
2022-10-17T21:26:17.202Z,99643.25
2022-10-17T21:28:45.808Z,99640.09
2022-10-17T21:31:24.477Z,99643.97
2022-10-17T21:33:56.622Z,99648.69
2022-10-17T21:36:26.147Z,99634.84
2022-10-17T21:38:55.756Z,99634.16
2022-10-17T21:41:26.357Z,99634.69
2022-10-17T21:43:55.723Z,99643.06
2022-10-17T21:46:23.935Z,99641.84
2022-10-17T21:48:52.019Z,99638.38
2022-10-17T21:51:21.615Z,99630.78
2022-10-17T21:53:50.119Z,99638.28
2022-10-17T21:56:20.542Z,99634.84
2022-10-17T21:58:49.538Z,99645.72
2022-10-17T22:01:23.568Z,99638.69
2022-10-17T22:03:54.699Z,99643.50
2022-10-17T22:06:39.322Z,99640.06
2022-10-17T22:09:12.784Z,99642.25
2022-10-17T22:11:41.074Z,99645.56
2022-10-17T22:14:13.596Z,99646.22
2022-10-17T22:16:41.542Z,99644.19
2022-10-17T22:19:10.647Z,99647.34
2022-10-17T22:21:38.002Z,99652.06
2022-10-17T22:24:07.884Z,99660.22
2022-10-17T22:26:37.220Z,99650.25
2022-10-17T22:29:05.859Z,99652.81
2022-10-17T22:31:33.463Z,99659.84
2022-10-17T22:34:00.748Z,99661.78
2022-10-17T22:36:28.098Z,99660.13
2022-10-17T22:38:55.212Z,99663.88
2022-10-17T22:41:22.498Z,99652.63
2022-10-17T22:43:49.458Z,99655.22
2022-10-17T22:46:17.160Z,99659.06
2022-10-17T22:48:44.453Z,99655.75
2022-10-17T22:51:12.010Z,99656.69
2022-10-17T22:53:39.135Z,99657.84
2022-10-17T22:56:10.507Z,99650.72
2022-10-17T22:58:38.172Z,99651.69
2022-10-17T23:01:07.437Z,99653.31
2022-10-17T23:03:35.269Z,99652.66
2022-10-17T23:06:02.834Z,99652.72
2022-10-17T23:08:30.032Z,99642.84
2022-10-17T23:10:57.415Z,99647.44
2022-10-17T23:13:24.584Z,99646.66
2022-10-17T23:15:55.976Z,99645.03
2022-10-17T23:18:24.929Z,99644.53
2022-10-17T23:20:52.251Z,99643.00
2022-10-17T23:23:19.556Z,99647.69
2022-10-17T23:25:46.974Z,99649.09
2022-10-17T23:28:14.639Z,99636.28
2022-10-17T23:30:42.255Z,99649.81
2022-10-17T23:33:12.453Z,99638.53
2022-10-17T23:35:39.865Z,99644.97
2022-10-17T23:38:06.830Z,99639.78
2022-10-17T23:40:35.156Z,99642.63
2022-10-17T23:43:02.961Z,99646.63
2022-10-17T23:45:33.516Z,99635.97
2022-10-17T23:48:05.267Z,99635.28
2022-10-17T23:50:32.232Z,99639.47
2022-10-17T23:52:59.379Z,99639.81
2022-10-17T23:55:26.331Z,99639.09
2022-10-17T23:57:53.414Z,99628.44
